Time;durP1;ratioP1;P1;durP2;ratioP2;P2;SDS_P1;SDS_P2;PMS_P1;PMS_P2;Temp;Humidity;BMP_temperature;BMP_pressure;BME280_temperature;BME280_humidity;BME280_pressure;Samples;Min_cycle;Max_cycle;Signal;HPM_P1;HPM_P2
2022/10/20 13:54:27;;;;;;;;;2.00;2.00;;;;;22.40;62.54;100599.28;5582283;23;51020;-75
2022/10/20 13:56:54;;;;;;;;;0.75;0.75;;;;;22.89;62.66;100649.50;4991923;28;49951;-73
2022/10/20 13:59:26;;;;;;;;;1.25;1.25;;;;;22.29;62.90;100522.03;4991707;28;50744;-74
2022/10/20 14:02:19;;;;;;;;;1.00;1.00;;;;;22.89;62.35;100611.16;4985997;28;49857;-73
2022/10/20 14:04:44;;;;;;;;;0.00;0.00;;;;;22.27;61.49;100495.34;4991510;28;49693;-75
2022/10/20 14:07:12;;;;;;;;;1.00;1.00;;;;;22.63;61.89;100534.34;4991662;28;49913;-73
2022/10/20 14:09:38;;;;;;;;;2.50;1.75;;;;;23.29;61.96;100651.75;5006478;28;50728;-75
2022/10/20 14:12:07;;;;;;;;;1.75;1.75;;;;;23.27;62.53;100620.63;4991756;28;49857;-74
2022/10/20 14:14:33;;;;;;;;;1.00;1.00;;;;;22.88;61.59;100559.44;4991677;28;49754;-75
2022/10/20 14:17:06;;;;;;;;;0.75;0.75;;;;;23.54;61.35;100630.34;4991485;28;49991;-74
2022/10/20 14:19:33;;;;;;;;;1.50;0.50;;;;;22.97;61.37;100523.44;4991666;28;50083;-74
2022/10/20 14:22:11;;;;;;;;;1.50;1.00;;;;;23.58;61.44;100612.38;4991060;28;49806;-75
2022/10/20 14:24:42;;;;;;;;;3.00;3.00;;;;;22.75;61.66;100500.03;4990277;28;49708;-74
2022/10/20 14:27:17;;;;;;;;;1.00;1.00;;;;;22.73;62.17;100542.03;5006151;28;49792;-76
2022/10/20 14:29:44;;;;;;;;;1.75;0.75;;;;;23.21;62.28;100628.84;4991121;28;50975;-75
2022/10/20 14:32:17;;;;;;;;;3.00;3.00;;;;;22.68;62.65;100584.13;4991060;28;49760;-74
2022/10/20 14:34:53;;;;;;;;;0.50;0.50;;;;;22.98;63.12;100640.31;4991299;28;50007;-75
2022/10/20 14:37:34;;;;;;;;;1.75;1.75;;;;;22.24;63.51;100534.69;4991044;28;49624;-77
2022/10/20 14:40:19;;;;;;;;;1.75;1.75;;;;;22.74;63.84;100613.34;4990964;28;49903;-76
2022/10/20 14:42:45;;;;;;;;;1.25;1.25;;;;;22.74;64.06;100613.34;4994013;28;50014;-75
2022/10/20 14:45:20;;;;;;;;;3.00;1.00;;;;;21.59;64.26;100444.84;4991964;28;49721;-74
2022/10/20 14:47:45;;;;;;;;;1.50;1.50;;;;;22.02;64.45;100530.91;4984962;28;49663;-76
2022/10/20 14:50:26;;;;;;;;;4.00;3.25;;;;;22.53;64.35;100587.28;4991055;28;49711;-77
2022/10/20 14:52:52;;;;;;;;;1.00;1.00;;;;;21.89;65.04;100490.28;4998672;28;49898;-74
2022/10/20 14:55:30;;;;;;;;;2.50;2.50;;;;;22.26;64.82;100592.53;4993868;28;49805;-77
2022/10/20 14:57:55;;;;;;;;;0.50;0.50;;;;;21.37;65.07;100399.22;4995807;28;49824;-75
2022/10/20 15:00:32;;;;;;;;;2.00;2.00;;;;;22.53;65.22;100579.25;4989301;28;50550;-76
2022/10/20 15:03:02;;;;;;;;;1.50;1.50;;;;;21.81;65.23;100446.88;4990877;28;49786;-76
2022/10/20 15:05:36;;;;;;;;;1.50;1.25;;;;;22.65;65.02;100573.50;4991037;28;49856;-77
2022/10/20 15:08:24;;;;;;;;;1.00;1.00;;;;;21.58;64.96;100397.69;4990889;28;49728;-76
2022/10/20 15:10:50;;;;;;;;;3.50;3.50;;;;;22.18;64.89;100495.63;4990728;28;49833;-79
2022/10/20 15:13:26;;;;;;;;;5.00;3.00;;;;;21.90;64.91;100436.78;4991116;28;49718;-75
2022/10/20 15:15:51;;;;;;;;;6.00;3.50;;;;;22.27;64.29;100508.72;4990876;28;49743;-75
2022/10/20 15:18:18;;;;;;;;;4.25;3.00;;;;;21.66;64.45;100418.84;4990809;28;49697;-77
2022/10/20 15:20:46;;;;;;;;;1.50;1.50;;;;;21.84;64.42;100428.09;4988990;28;51051;-76
2022/10/20 15:23:16;;;;;;;;;1.50;1.50;;;;;22.57;64.45;100533.63;4988858;28;50414;-75
2022/10/20 15:26:02;;;;;;;;;0.50;0.25;;;;;22.29;64.67;100489.94;4989377;28;49772;-75
2022/10/20 15:28:33;;;;;;;;;1.50;1.50;;;;;22.56;64.85;100536.34;4988827;28;49697;-73
2022/10/20 15:31:00;;;;;;;;;2.75;2.75;;;;;22.57;64.94;100533.63;4988191;28;49825;-75
2022/10/20 15:33:26;;;;;;;;;1.00;1.00;;;;;22.32;64.76;100486.31;4990535;28;49742;-76
2022/10/20 15:35:52;;;;;;;;;2.00;2.00;;;;;21.67;64.87;100415.25;4990671;28;49914;-75
2022/10/20 15:38:18;;;;;;;;;3.50;2.75;;;;;21.77;65.36;100448.78;4989301;28;49852;-77
2022/10/20 15:40:44;;;;;;;;;1.50;1.50;;;;;22.45;66.05;100555.41;4988977;28;50825;-75
2022/10/20 15:43:12;;;;;;;;;1.75;1.75;;;;;22.39;65.59;100554.72;4988548;28;49784;-78
2022/10/20 15:45:42;;;;;;;;;3.75;1.50;;;;;21.52;66.40;100413.03;5003797;28;49796;-74
2022/10/20 15:48:07;;;;;;;;;3.00;1.75;;;;;21.62;66.32;100479.50;4989629;28;49633;-75
2022/10/20 15:50:33;;;;;;;;;4.00;1.75;;;;;22.00;66.88;100528.25;4988761;28;50256;-73
2022/10/20 15:52:58;;;;;;;;;4.75;2.25;;;;;21.36;66.30;100439.31;4984193;28;49768;-74
2022/10/20 15:55:31;;;;;;;;;4.00;2.50;;;;;21.54;66.53;100459.28;4983992;28;49906;-76
2022/10/20 15:57:56;;;;;;;;;3.75;2.50;;;;;21.58;67.79;100475.16;4976398;28;50758;-75
2022/10/20 16:00:25;;;;;;;;;1.00;1.00;;;;;22.03;67.36;100557.56;4985911;28;50600;-73
2022/10/20 16:02:50;;;;;;;;;1.00;1.00;;;;;21.98;68.11;100555.03;4989033;28;50003;-76
2022/10/20 16:05:18;;;;;;;;;1.50;1.50;;;;;21.34;68.03;100482.09;4990002;28;49864;-74
2022/10/20 16:07:43;;;;;;;;;3.00;2.25;;;;;21.14;68.44;100426.56;4989846;28;49947;-76
2022/10/20 16:10:10;;;;;;;;;4.00;4.00;;;;;21.40;68.57;100499.72;4989706;28;49701;-74
2022/10/20 16:12:36;;;;;;;;;2.00;2.00;;;;;21.52;69.59;100519.84;4990020;28;49605;-74
2022/10/20 16:15:01;;;;;;;;;5.50;3.50;;;;;20.47;69.64;100368.81;4989990;28;49858;-73
2022/10/20 16:17:27;;;;;;;;;2.50;2.50;;;;;20.96;70.15;100448.41;4988705;28;49889;-76
2022/10/20 16:19:53;;;;;;;;;1.75;1.75;;;;;20.90;69.90;100490.38;4989614;28;49985;-75
2022/10/20 16:22:18;;;;;;;;;4.50;2.00;;;;;20.51;70.31;100391.78;4987757;28;49809;-77
2022/10/20 16:24:46;;;;;;;;;3.50;3.50;;;;;21.51;70.72;100569.72;4988800;28;49917;-74
2022/10/20 16:27:12;;;;;;;;;2.50;2.50;;;;;20.97;71.12;100498.19;4988316;28;50358;-74
2022/10/20 16:29:37;;;;;;;;;3.00;3.00;;;;;20.30;70.92;100403.84;5019313;28;52612;-74
2022/10/20 16:32:03;;;;;;;;;5.25;3.50;;;;;20.82;71.78;100469.22;4989001;28;49850;-75
2022/10/20 16:34:28;;;;;;;;;6.25;4.00;;;;;20.20;72.02;100362.34;4989454;28;49797;-74
2022/10/20 16:36:55;;;;;;;;;5.00;3.75;;;;;21.23;72.06;100572.25;4988387;28;50178;-75
2022/10/20 16:39:20;;;;;;;;;2.75;1.75;;;;;20.25;72.36;100395.94;4989415;28;49746;-74
2022/10/20 16:41:45;;;;;;;;;2.00;1.75;;;;;20.77;72.83;100511.16;4987383;28;50013;-74
2022/10/20 16:44:13;;;;;;;;;4.00;3.75;;;;;21.35;73.15;100579.09;4988349;28;49900;-76
2022/10/20 16:46:39;;;;;;;;;4.25;3.00;;;;;21.33;73.29;100580.94;4988261;28;50101;-74
2022/10/20 16:49:05;;;;;;;;;3.00;3.00;;;;;21.31;73.64;100585.41;4989830;28;49822;-76
2022/10/20 16:51:31;;;;;;;;;4.25;3.50;;;;;21.29;73.71;100588.13;4990461;28;50863;-82
2022/10/20 16:53:57;;;;;;;;;7.25;6.00;;;;;21.29;74.12;100590.78;4988127;28;49887;-75
2022/10/20 16:56:24;;;;;;;;;8.00;5.50;;;;;21.28;74.71;100577.47;4991959;28;49687;-75
2022/10/20 16:58:49;;;;;;;;;6.00;6.00;;;;;21.26;74.41;100580.19;4989138;28;50496;-75
2022/10/20 17:01:18;;;;;;;;;4.75;3.75;;;;;21.22;74.97;100556.25;4989043;28;50090;-73
2022/10/20 17:03:52;;;;;;;;;4.00;4.00;;;;;21.25;75.28;100574.88;4976213;28;49903;-74
2022/10/20 17:06:24;;;;;;;;;2.00;2.00;;;;;20.96;76.01;100514.22;4990564;28;49930;-76
2022/10/20 17:08:49;;;;;;;;;5.00;4.00;;;;;21.23;77.61;100561.56;4992549;28;50035;-76
2022/10/20 17:11:21;;;;;;;;;6.00;5.50;;;;;21.24;78.08;100527.75;4992239;28;49777;-71
2022/10/20 17:13:47;;;;;;;;;4.00;4.00;;;;;21.41;78.24;100542.38;4992565;28;49791;-72
2022/10/20 17:16:15;;;;;;;;;3.75;3.50;;;;;21.38;77.48;100517.56;4992523;28;49843;-74
2022/10/20 17:18:41;;;;;;;;;4.50;3.25;;;;;21.33;76.49;100530.19;4992126;28;49691;-73
2022/10/20 17:21:07;;;;;;;;;3.75;3.25;;;;;21.29;77.20;100580.09;4992565;28;49744;-73
2022/10/20 17:23:35;;;;;;;;;3.25;2.25;;;;;21.19;75.83;100586.56;4992569;28;49686;-72
2022/10/20 17:26:01;;;;;;;;;2.00;2.00;;;;;21.10;75.53;100593.00;4992956;28;49929;-75
2022/10/20 17:28:30;;;;;;;;;3.50;2.00;;;;;21.02;73.68;100588.78;4992637;28;49909;-72
2022/10/20 17:30:56;;;;;;;;;1.25;1.25;;;;;20.54;73.04;100519.69;4991879;28;49980;-74
2022/10/20 17:33:26;;;;;;;;;2.00;2.00;;;;;20.87;70.01;100592.72;4991418;28;49795;-73
2022/10/20 17:35:53;;;;;;;;;2.00;2.00;;;;;20.87;70.20;100600.72;4992657;28;49627;-71
2022/10/20 17:38:18;;;;;;;;;2.00;2.00;;;;;20.78;70.33;100598.28;4992636;28;50824;-72
2022/10/20 17:40:44;;;;;;;;;1.75;1.75;;;;;20.75;69.58;100611.66;4989365;28;50031;-74
2022/10/20 17:43:09;;;;;;;;;2.50;2.50;;;;;20.72;70.71;100614.41;4992172;28;50211;-74
2022/10/20 17:45:35;;;;;;;;;1.25;1.00;;;;;20.46;71.06;100594.56;4992214;28;49847;-74
2022/10/20 17:48:08;;;;;;;;;2.75;2.75;;;;;20.04;72.17;100551.00;4992615;28;49728;-81
2022/10/20 17:50:35;;;;;;;;;3.25;2.25;;;;;20.48;72.34;100598.06;4990963;28;49808;-78
2022/10/20 17:53:01;;;;;;;;;2.00;2.00;;;;;20.33;73.09;100553.03;4990362;28;49905;-73
2022/10/20 17:55:28;;;;;;;;;2.50;2.50;;;;;20.42;74.46;100595.50;4989294;28;49769;-77
2022/10/20 17:57:53;;;;;;;;;2.25;2.25;;;;;20.25;73.61;100592.31;4991504;28;50069;-84
2022/10/20 18:00:19;;;;;;;;;2.50;2.50;;;;;20.16;75.03;100571.19;4991461;28;49908;-81
2022/10/20 18:02:46;;;;;;;;;1.50;1.50;;;;;20.37;75.93;100634.72;4993806;28;49909;-73
2022/10/20 18:05:12;;;;;;;;;3.00;2.75;;;;;20.29;74.35;100644.66;4990940;28;50015;-82
2022/10/20 18:07:37;;;;;;;;;2.00;2.00;;;;;20.10;75.21;100648.63;4990385;28;50639;-75
2022/10/20 18:10:03;;;;;;;;;2.50;2.25;;;;;20.14;75.90;100628.97;4990213;28;49897;-74
2022/10/20 18:12:28;;;;;;;;;5.75;4.00;;;;;19.95;74.84;100569.84;4992138;28;49783;-80
2022/10/20 18:14:54;;;;;;;;;3.00;2.00;;;;;19.73;76.94;100502.84;4992450;28;49789;-73
2022/10/20 18:17:19;;;;;;;;;4.00;3.25;;;;;19.91;79.06;100534.41;4990796;28;67929;-75
2022/10/20 18:19:44;;;;;;;;;3.50;1.75;;;;;19.60;79.70;100485.38;4990783;28;49730;-76
2022/10/20 18:22:10;;;;;;;;;2.00;2.00;;;;;19.68;80.27;100539.31;4992280;28;49639;-84
2022/10/20 18:24:36;;;;;;;;;3.50;3.25;;;;;19.56;79.34;100563.53;4990259;28;49771;-84
2022/10/20 18:27:01;;;;;;;;;3.50;3.50;;;;;19.54;80.30;100558.22;4992053;28;49755;-80
2022/10/20 18:29:27;;;;;;;;;4.75;4.50;;;;;19.58;80.98;100567.03;4991488;28;49596;-78
2022/10/20 18:31:53;;;;;;;;;3.25;3.25;;;;;19.54;82.16;100568.88;4991499;28;49860;-75
2022/10/20 18:34:22;;;;;;;;;4.50;3.50;;;;;19.41;83.28;100557.56;4991636;28;49828;-75
2022/10/20 18:36:49;;;;;;;;;1.50;1.50;;;;;19.41;84.07;100565.56;4990737;28;50352;-80
2022/10/20 18:39:15;;;;;;;;;5.00;3.50;;;;;19.01;84.35;100498.88;4992201;28;49896;-80
2022/10/20 18:41:42;;;;;;;;;6.00;4.75;;;;;19.08;85.00;100518.25;4991101;28;49781;-75
2022/10/20 18:44:13;;;;;;;;;6.50;3.50;;;;;18.53;86.15;100468.66;4991740;28;49834;-78
2022/10/20 18:46:40;;;;;;;;;6.00;4.75;;;;;19.09;87.52;100546.63;4991485;28;49747;-75
2022/10/20 18:49:14;;;;;;;;;4.50;4.50;;;;;19.19;87.14;100558.84;4991895;28;50028;-86
2022/10/20 18:51:40;;;;;;;;;7.50;5.50;;;;;19.16;88.18;100558.91;4991568;28;49591;-89
2022/10/20 18:54:08;;;;;;;;;5.25;4.50;;;;;18.14;88.35;100393.97;4992475;28;50042;-82
2022/10/20 18:56:34;;;;;;;;;5.75;5.75;;;;;18.47;89.16;100450.16;4991555;28;49795;-72
2022/10/20 18:59:03;;;;;;;;;6.00;5.00;;;;;18.94;89.67;100542.47;4985438;28;50051;-77
2022/10/20 19:01:30;;;;;;;;;6.00;4.00;;;;;18.96;90.44;100543.31;4987865;28;49853;-77
2022/10/20 19:03:57;;;;;;;;;6.75;6.50;;;;;18.48;90.84;100459.88;4988722;28;50071;-78
2022/10/20 19:06:32;;;;;;;;;8.50;8.50;;;;;18.67;91.75;100514.53;4990539;28;50794;-78
2022/10/20 19:09:00;;;;;;;;;6.75;6.25;;;;;18.80;91.57;100537.34;4990399;28;49760;-78
2022/10/20 19:11:28;;;;;;;;;10.00;4.25;;;;;18.79;91.38;100538.25;4984035;28;50018;-74
2022/10/20 19:13:55;;;;;;;;;7.00;6.00;;;;;18.76;93.01;100534.78;4979649;28;49900;-80
2022/10/20 19:16:29;;;;;;;;;7.00;6.00;;;;;18.77;92.47;100532.09;4978177;28;49812;-74
2022/10/20 19:18:57;;;;;;;;;7.75;5.50;;;;;18.70;93.67;100529.53;4977063;28;50141;-75
2022/10/20 19:21:31;;;;;;;;;10.50;7.25;;;;;18.71;92.81;100520.66;4979912;28;49931;-73
2022/10/20 19:24:00;;;;;;;;;7.50;7.50;;;;;18.92;91.93;100564.66;4980692;28;49914;-76
2022/10/20 19:26:29;;;;;;;;;5.50;5.50;;;;;18.45;92.69;100489.16;4981932;28;50069;-75
2022/10/20 19:28:58;;;;;;;;;8.00;7.00;;;;;18.87;92.95;100568.28;4980675;28;49989;-74
2022/10/20 19:31:32;;;;;;;;;7.25;4.50;;;;;18.97;92.76;100565.47;4982153;28;49924;-72
2022/10/20 19:34:01;;;;;;;;;9.00;7.00;;;;;18.94;91.92;100550.44;4983925;28;50399;-73
2022/10/20 19:36:28;;;;;;;;;6.25;5.75;;;;;18.69;91.81;100504.75;4982520;28;50579;-72
2022/10/20 19:38:53;;;;;;;;;7.00;7.00;;;;;18.66;91.35;100498.59;4980812;28;50836;-72
2022/10/20 19:41:19;;;;;;;;;6.00;5.00;;;;;18.81;91.09;100533.78;4981783;28;50190;-73
2022/10/20 19:43:45;;;;;;;;;4.25;4.00;;;;;18.62;92.26;100510.16;4980328;28;49956;-72
2022/10/20 19:46:13;;;;;;;;;5.00;5.00;;;;;18.71;92.91;100528.66;4981183;28;50664;-73
2022/10/20 19:48:38;;;;;;;;;5.00;5.00;;;;;18.65;93.73;100529.63;4978848;28;50091;-75
2022/10/20 19:51:04;;;;;;;;;7.25;7.25;;;;;18.41;94.83;100506.91;4980050;28;49792;-72
2022/10/20 19:53:30;;;;;;;;;4.25;4.25;;;;;18.52;95.20;100536.88;4981475;28;49742;-75
2022/10/20 19:55:55;;;;;;;;;7.25;7.00;;;;;18.51;96.26;100535.13;4980178;28;50324;-73
2022/10/20 19:58:21;;;;;;;;;4.50;4.50;;;;;18.46;97.37;100533.44;4981478;28;49873;-73
2022/10/20 20:00:49;;;;;;;;;6.75;5.50;;;;;18.41;97.14;100527.31;4980165;28;50378;-76
2022/10/20 20:03:16;;;;;;;;;6.50;5.25;;;;;18.37;97.72;100536.25;4983984;28;49907;-76
2022/10/20 20:05:41;;;;;;;;;6.25;6.25;;;;;18.36;98.31;100537.16;4983350;28;52372;-73
2022/10/20 20:08:06;;;;;;;;;7.00;6.00;;;;;18.38;97.46;100524.72;4982120;28;56707;-76
2022/10/20 20:10:33;;;;;;;;;5.00;4.00;;;;;18.23;95.34;100504.53;4978215;28;50298;-73
2022/10/20 20:12:59;;;;;;;;;5.25;4.50;;;;;18.25;94.64;100502.75;4981208;28;49921;-77
2022/10/20 20:15:24;;;;;;;;;4.25;4.25;;;;;18.23;93.66;100500.09;4980273;28;49841;-73
2022/10/20 20:17:49;;;;;;;;;4.00;4.00;;;;;18.36;92.59;100518.53;4984985;28;49835;-72
2022/10/20 20:20:15;;;;;;;;;5.75;3.00;;;;;18.34;91.52;100507.94;4989403;28;49956;-74
2022/10/20 20:22:53;;;;;;;;;2.50;2.50;;;;;18.26;90.65;100502.72;4989392;28;49825;-72
2022/10/20 20:25:18;;;;;;;;;3.75;2.75;;;;;18.21;89.96;100504.56;4992381;28;50476;-74
2022/10/20 20:27:44;;;;;;;;;2.75;2.75;;;;;18.19;89.61;100503.72;4989659;28;49764;-76
2022/10/20 20:30:09;;;;;;;;;3.00;3.00;;;;;17.92;90.33;100457.16;4994972;28;49913;-73
2022/10/20 20:32:36;;;;;;;;;4.00;4.00;;;;;18.19;89.42;100501.06;4993855;28;49978;-76
2022/10/20 20:35:01;;;;;;;;;3.25;3.00;;;;;18.26;88.56;100518.69;4993460;28;49883;-72
2022/10/20 20:37:27;;;;;;;;;3.00;3.00;;;;;17.99;87.62;100477.44;4993001;28;50108;-75
2022/10/20 20:39:52;;;;;;;;;2.00;1.00;;;;;18.25;86.75;100522.25;4993283;28;49739;-76
2022/10/20 20:42:18;;;;;;;;;2.75;2.75;;;;;18.23;86.07;100523.13;4993464;28;49927;-76
2022/10/20 20:44:43;;;;;;;;;1.75;1.75;;;;;18.28;84.92;100530.16;4992993;28;49975;-74
2022/10/20 20:47:11;;;;;;;;;1.00;1.00;;;;;18.28;84.90;100530.16;4992008;28;49966;-75
2022/10/20 20:49:36;;;;;;;;;3.00;3.00;;;;;18.23;85.26;100520.47;4992860;28;56653;-74
2022/10/20 20:52:01;;;;;;;;;3.25;3.25;;;;;18.28;85.75;100532.81;4992685;28;54723;-74
2022/10/20 20:54:27;;;;;;;;;2.75;2.75;;;;;18.28;85.55;100537.25;4992961;28;50059;-74
2022/10/20 20:56:52;;;;;;;;;2.00;2.00;;;;;18.28;85.33;100523.97;4991583;28;49986;-73
2022/10/20 20:59:18;;;;;;;;;2.00;2.00;;;;;18.28;85.76;100534.59;4992503;28;55325;-74
2022/10/20 21:01:44;;;;;;;;;3.75;3.00;;;;;18.28;86.05;100545.22;4993182;28;49760;-72
2022/10/20 21:04:10;;;;;;;;;1.00;1.00;;;;;18.27;85.85;100541.69;4992821;28;49813;-74
2022/10/20 21:06:40;;;;;;;;;3.00;3.00;;;;;18.25;86.26;100554.13;4993101;28;49714;-73
2022/10/20 21:09:10;;;;;;;;;2.50;2.00;;;;;18.26;86.34;100562.97;4993093;28;49976;-73
2022/10/20 21:11:36;;;;;;;;;3.50;2.25;;;;;18.26;86.53;100557.66;4993093;28;49801;-73
2022/10/20 21:14:02;;;;;;;;;3.00;3.00;;;;;18.23;86.52;100565.66;4992651;28;49877;-73
2022/10/20 21:16:29;;;;;;;;;6.00;5.00;;;;;18.21;87.07;100567.47;4992625;28;49817;-74
2022/10/20 21:18:57;;;;;;;;;1.50;1.50;;;;;18.18;87.55;100581.66;4992474;28;49734;-75
2022/10/20 21:21:25;;;;;;;;;3.00;3.00;;;;;18.09;87.70;100572.94;4992790;28;49781;-71
2022/10/20 21:23:55;;;;;;;;;3.00;2.00;;;;;18.05;87.29;100572.13;4992287;28;50043;-72
2022/10/20 21:26:21;;;;;;;;;1.75;1.75;;;;;17.95;87.65;100586.38;4992689;28;49898;-72
2022/10/20 21:28:47;;;;;;;;;3.25;3.00;;;;;17.56;87.37;100522.19;4992768;28;49742;-72
2022/10/20 21:31:17;;;;;;;;;2.00;2.00;;;;;17.81;87.57;100577.72;4992651;28;49699;-73
2022/10/20 21:33:44;;;;;;;;;1.00;0.50;;;;;17.71;88.30;100587.56;4991728;28;50250;-72
2022/10/20 21:36:14;;;;;;;;;1.00;1.00;;;;;17.64;88.93;100585.81;4991025;28;49859;-73
2022/10/20 21:38:40;;;;;;;;;0.00;0.00;;;;;17.31;89.00;100552.56;4991990;28;49669;-71
2022/10/20 21:41:12;;;;;;;;;2.25;1.75;;;;;17.50;89.46;100593.06;4992700;28;49663;-72
2022/10/20 21:43:40;;;;;;;;;3.00;2.75;;;;;17.26;89.93;100564.97;4992230;28;49819;-73
2022/10/20 21:46:14;;;;;;;;;2.00;2.00;;;;;17.14;90.21;100539.47;4992751;28;50039;-75
2022/10/20 21:48:41;;;;;;;;;2.00;2.00;;;;;17.31;91.07;100593.25;4991213;28;49911;-72
2022/10/20 21:51:24;;;;;;;;;1.50;1.00;;;;;17.14;91.71;100577.47;4992333;28;50056;-72
2022/10/20 21:53:57;;;;;;;;;1.75;1.75;;;;;17.26;91.95;100603.00;4991606;28;50562;-72
2022/10/20 21:56:23;;;;;;;;;2.50;2.00;;;;;17.27;92.51;100609.19;4991038;28;49991;-74
2022/10/20 21:58:49;;;;;;;;;1.00;1.00;;;;;17.04;92.60;100585.53;4992016;28;49840;-71
2022/10/20 22:01:17;;;;;;;;;1.50;1.50;;;;;17.14;93.96;100605.78;4992370;28;49761;-74
2022/10/20 22:03:44;;;;;;;;;6.25;3.25;;;;;17.15;93.85;100605.75;4991938;28;49675;-73
2022/10/20 22:06:11;;;;;;;;;1.50;1.50;;;;;17.09;94.15;100604.94;4992128;28;49707;-73
2022/10/20 22:08:38;;;;;;;;;5.50;2.25;;;;;16.91;94.62;100576.81;4991689;28;49772;-75
2022/10/20 22:11:05;;;;;;;;;3.00;2.25;;;;;17.10;94.71;100612.88;4991942;28;49681;-73
2022/10/20 22:13:31;;;;;;;;;3.50;2.75;;;;;16.85;95.05;100572.41;4990495;28;49926;-73
2022/10/20 22:15:56;;;;;;;;;3.00;3.00;;;;;16.87;94.76;100578.56;4991754;28;49854;-72
2022/10/20 22:18:22;;;;;;;;;5.00;3.00;;;;;16.66;95.11;100557.50;4991727;28;49940;-72
2022/10/20 22:20:47;;;;;;;;;2.00;2.00;;;;;17.04;95.21;100612.03;4992033;28;49746;-73
2022/10/20 22:23:13;;;;;;;;;4.75;1.00;;;;;17.03;95.33;100607.63;4991463;28;50756;-73
2022/10/20 22:25:39;;;;;;;;;0.00;0.00;;;;;17.01;95.60;100601.47;4991646;28;49693;-72
2022/10/20 22:28:05;;;;;;;;;3.00;2.00;;;;;16.89;95.92;100589.19;4991539;28;49639;-73
2022/10/20 22:30:31;;;;;;;;;3.00;3.00;;;;;16.97;95.68;100597.94;4991670;28;49669;-72
2022/10/20 22:32:56;;;;;;;;;2.50;1.50;;;;;16.89;96.25;100594.50;4991454;28;50328;-73
2022/10/20 22:35:22;;;;;;;;;2.25;2.25;;;;;16.76;96.34;100574.25;4991538;28;50091;-73
2022/10/20 22:37:47;;;;;;;;;3.50;3.50;;;;;16.94;96.52;100597.09;4991422;28;49822;-73
2022/10/20 22:40:12;;;;;;;;;3.50;3.50;;;;;16.83;96.48;100575.97;4991634;28;49804;-74
2022/10/20 22:42:38;;;;;;;;;3.50;3.50;;;;;16.83;96.08;100574.19;4991404;28;49933;-73
2022/10/20 22:45:03;;;;;;;;;4.25;3.75;;;;;16.91;96.90;100589.19;4990273;28;58179;-75
2022/10/20 22:47:28;;;;;;;;;1.50;1.50;;;;;16.75;96.67;100557.47;4991020;28;49587;-73
2022/10/20 22:49:54;;;;;;;;;4.50;3.00;;;;;16.90;96.67;100576.81;4991489;28;49777;-73
2022/10/20 22:52:19;;;;;;;;;2.50;2.00;;;;;16.83;96.49;100565.38;4990862;28;49775;-74
2022/10/20 22:54:44;;;;;;;;;3.25;2.75;;;;;16.67;96.34;100524.81;4990902;28;56062;-73
2022/10/20 22:57:10;;;;;;;;;1.75;1.75;;;;;16.87;96.53;100564.44;4991385;28;49975;-74
2022/10/20 22:59:35;;;;;;;;;2.00;2.00;;;;;16.78;96.85;100551.25;4990872;28;54324;-75
2022/10/20 23:02:00;;;;;;;;;3.00;3.00;;;;;16.77;96.56;100537.13;4990499;28;61274;-73
2022/10/20 23:04:26;;;;;;;;;3.25;3.00;;;;;16.95;96.61;100577.66;4990424;28;65579;-73
2022/10/20 23:06:51;;;;;;;;;3.50;3.00;;;;;16.93;96.80;100558.22;4990798;28;50254;-73
2022/10/20 23:09:16;;;;;;;;;2.75;2.75;;;;;16.90;97.14;100556.47;4990944;28;49631;-72
2022/10/20 23:11:41;;;;;;;;;3.25;3.25;;;;;16.91;97.35;100560.00;4991014;28;49544;-73
2022/10/20 23:14:07;;;;;;;;;3.00;3.00;;;;;16.90;97.45;100561.78;4990617;28;61875;-72
2022/10/20 23:16:32;;;;;;;;;2.25;1.50;;;;;16.87;97.70;100560.00;4991334;28;49821;-73
2022/10/20 23:18:57;;;;;;;;;2.75;2.00;;;;;16.71;97.35;100523.94;4991371;28;49769;-72
2022/10/20 23:21:23;;;;;;;;;3.00;3.00;;;;;16.85;97.61;100567.09;4990797;28;51057;-74
2022/10/20 23:23:48;;;;;;;;;3.75;2.00;;;;;16.83;97.65;100573.31;4990905;28;49679;-72
2022/10/20 23:26:14;;;;;;;;;2.00;2.00;;;;;16.79;97.50;100571.56;4990917;28;49724;-74
2022/10/20 23:28:39;;;;;;;;;2.00;2.00;;;;;16.82;97.86;100574.22;4991045;28;49916;-72
2022/10/20 23:31:13;;;;;;;;;4.00;2.50;;;;;16.72;97.69;100552.19;4990743;28;50454;-73
2022/10/20 23:33:40;;;;;;;;;3.00;3.00;;;;;16.70;97.82;100547.81;4990785;28;49877;-72
2022/10/20 23:36:06;;;;;;;;;2.00;1.00;;;;;16.49;97.98;100519.63;4990725;28;49930;-72
2022/10/20 23:38:32;;;;;;;;;3.00;3.00;;;;;16.56;98.51;100530.19;5005575;28;49972;-72
2022/10/20 23:40:57;;;;;;;;;3.00;2.00;;;;;16.72;98.47;100553.97;4990412;28;49700;-73
2022/10/20 23:43:22;;;;;;;;;4.00;3.00;;;;;16.72;98.73;100551.31;4990410;28;50122;-72
2022/10/20 23:45:48;;;;;;;;;3.00;3.00;;;;;16.57;98.59;100529.28;4990596;28;50098;-71
2022/10/20 23:48:13;;;;;;;;;3.25;1.50;;;;;16.71;98.79;100544.28;4990764;28;49711;-72
2022/10/20 23:50:39;;;;;;;;;5.00;2.00;;;;;16.55;98.66;100528.44;4990284;28;50362;-72
2022/10/20 23:53:04;;;;;;;;;4.00;3.00;;;;;16.55;98.98;100519.59;4988997;28;49726;-72
2022/10/20 23:55:29;;;;;;;;;1.00;1.00;;;;;16.57;99.17;100529.28;4990051;28;53534;-72
2022/10/20 23:57:55;;;;;;;;;2.75;2.75;;;;;16.62;99.64;100534.56;4994994;28;49882;-72
